Time;durP1;ratioP1;P1;durP2;ratioP2;P2;SDS_P1;SDS_P2;PMS_P1;PMS_P2;Temp;Humidity;BMP_temperature;BMP_pressure;BME280_temperature;BME280_humidity;BME280_pressure;Samples;Min_cycle;Max_cycle;Signal;HPM_P1;HPM_P2
2023/03/03 00:01:58;;;;;;;4.35;3.83;;;;;;;18.04;27.83;102262.16;16114331;19;131681;-41
2023/03/03 00:07:22;;;;;;;5.63;3.88;;;;;;;17.98;27.44;102266.59;16116326;19;128899;-41
2023/03/03 00:12:48;;;;;;;4.90;3.60;;;;;;;17.95;27.30;102261.47;16113279;19;129689;-42
2023/03/03 00:18:21;;;;;;;4.72;4.18;;;;;;;17.91;27.24;102259.34;16116154;19;132123;-41
2023/03/03 00:23:43;;;;;;;6.00;4.70;;;;;;;17.84;27.20;102271.28;16113666;19;131087;-41
2023/03/03 00:29:29;;;;;;;5.30;4.32;;;;;;;17.83;27.43;102260.38;16113026;19;129734;-43
2023/03/03 00:34:54;;;;;;;6.78;4.45;;;;;;;17.77;27.61;102269.53;16112768;19;129824;-40
2023/03/03 00:40:46;;;;;;;5.13;4.63;;;;;;;17.74;27.38;102270.78;16108572;19;129337;-41
2023/03/03 00:46:08;;;;;;;5.05;4.43;;;;;;;17.71;27.54;102276.75;16112375;19;129627;-40
2023/03/03 00:51:33;;;;;;;5.70;4.70;;;;;;;17.69;27.37;102284.41;16112737;19;129322;-41
2023/03/03 00:56:55;;;;;;;4.70;4.30;;;;;;;17.65;27.33;102277.56;16116933;19;132532;-41
2023/03/03 01:02:16;;;;;;;4.85;4.22;;;;;;;17.62;27.01;102272.44;16107804;19;132281;-40
2023/03/03 01:07:38;;;;;;;4.68;3.95;;;;;;;17.60;27.37;102280.97;16109511;19;129523;-41
2023/03/03 01:13:00;;;;;;;4.63;3.70;;;;;;;17.59;27.22;102289.47;16110161;19;130758;-43
2023/03/03 01:18:22;;;;;;;4.82;3.80;;;;;;;17.56;27.04;102290.72;16110257;19;130873;-40
2023/03/03 01:23:44;;;;;;;3.95;3.47;;;;;;;17.54;27.43;102293.72;16107354;19;129443;-40
2023/03/03 01:29:06;;;;;;;4.47;3.88;;;;;;;17.51;27.38;102285.78;16108294;19;130762;-46
2023/03/03 01:34:28;;;;;;;5.55;4.53;;;;;;;17.49;27.27;102290.66;16106687;19;129520;-41
2023/03/03 01:39:54;;;;;;;6.13;4.63;;;;;;;17.47;27.37;102290.03;16120145;19;131874;-49
2023/03/03 01:45:17;;;;;;;;;;;;;;;17.41;27.15;102282.53;16129100;19;129915;-52
2023/03/03 01:50:54;;;;;;;4.90;3.78;;;;;;;17.43;26.92;102283.19;16122662;19;129425;-49
2023/03/03 01:56:16;;;;;;;5.43;4.22;;;;;;;17.38;27.14;102271.88;16121000;19;130392;-47
2023/03/03 02:01:38;;;;;;;5.40;4.40;;;;;;;17.37;27.22;102270.16;16121245;19;130612;-41
2023/03/03 02:07:09;;;;;;;5.75;5.00;;;;;;;17.36;27.02;102279.53;16121807;19;130479;-44
2023/03/03 02:12:48;;;;;;;5.65;4.20;;;;;;;17.35;27.28;102272.31;16117944;19;129649;-40
2023/03/03 02:18:13;;;;;;;4.90;3.85;;;;;;;17.32;27.32;102267.19;16121563;19;129610;-45
2023/03/03 02:24:06;;;;;;;4.75;3.97;;;;;;;17.31;27.46;102260.78;16119629;19;130397;-41
2023/03/03 02:29:28;;;;;;;5.80;4.55;;;;;;;17.27;27.19;102269.69;16110758;19;131008;-42
2023/03/03 02:34:51;;;;;;;4.93;4.13;;;;;;;17.23;27.04;102275.63;16121264;19;131577;-41
2023/03/03 02:40:15;;;;;;;6.95;5.05;;;;;;;17.20;26.99;102270.53;16118814;19;129925;-41
2023/03/03 02:45:43;;;;;;;6.63;5.18;;;;;;;17.19;26.85;102273.47;16116788;19;129466;-41
2023/03/03 02:51:06;;;;;;;6.78;5.30;;;;;;;17.16;26.95;102277.50;16118228;19;130811;-41
2023/03/03 02:56:28;;;;;;;6.93;5.50;;;;;;;17.11;27.22;102281.94;16121355;19;130525;-41
2023/03/03 03:01:50;;;;;;;7.95;5.78;;;;;;;17.05;27.36;102284.44;16120895;19;130104;-41
2023/03/03 03:07:12;;;;;;;6.18;5.57;;;;;;;17.04;26.80;102290.19;16120887;19;129658;-44
2023/03/03 03:12:33;;;;;;;7.65;6.25;;;;;;;17.03;27.12;102291.25;16113250;19;129819;-43
2023/03/03 03:17:55;;;;;;;6.35;5.05;;;;;;;17.02;26.96;102292.28;16115891;19;131125;-43
2023/03/03 03:23:17;;;;;;;6.18;4.65;;;;;;;17.03;27.06;102291.25;16113526;19;131055;-41
2023/03/03 03:28:39;;;;;;;5.13;4.32;;;;;;;17.06;27.04;102301.91;16116450;19;129858;-41
2023/03/03 03:34:01;;;;;;;5.03;4.40;;;;;;;17.03;26.97;102291.25;16115838;19;129565;-41
2023/03/03 03:39:23;;;;;;;4.40;4.00;;;;;;;17.02;27.28;102304.22;16115895;19;130647;-43
2023/03/03 03:44:44;;;;;;;6.13;4.75;;;;;;;17.02;27.27;102306.13;16112597;19;129939;-41
2023/03/03 03:50:08;;;;;;;4.40;3.50;;;;;;;17.01;27.29;102307.16;16115815;19;130645;-41
2023/03/03 03:55:29;;;;;;;4.20;3.55;;;;;;;17.00;27.10;102308.22;16115778;19;130267;-43
2023/03/03 04:00:51;;;;;;;4.38;3.78;;;;;;;16.98;26.95;102321.41;16112043;19;129430;-42
2023/03/03 04:06:13;;;;;;;4.53;3.67;;;;;;;16.95;27.23;102321.81;16115039;19;129002;-42
2023/03/03 04:11:35;;;;;;;4.00;3.20;;;;;;;16.95;27.09;102317.13;16113926;19;130135;-43
2023/03/03 04:16:57;;;;;;;3.95;3.13;;;;;;;16.92;27.11;102318.41;16114257;19;129988;-42
2023/03/03 04:22:19;;;;;;;4.95;3.50;;;;;;;16.92;26.94;102323.91;16117238;19;130925;-41
2023/03/03 04:27:42;;;;;;;5.35;3.40;;;;;;;16.89;27.30;102324.31;16114702;19;129334;-42
2023/03/03 04:33:03;;;;;;;3.63;3.20;;;;;;;16.88;27.17;102333.66;16115378;19;131717;-43
2023/03/03 04:38:25;;;;;;;3.25;2.95;;;;;;;16.88;27.22;102338.34;16111794;19;129070;-41
2023/03/03 04:43:47;;;;;;;4.00;3.25;;;;;;;16.87;27.17;102339.41;16110990;19;131503;-42
2023/03/03 04:49:09;;;;;;;4.00;3.50;;;;;;;16.85;26.91;102347.91;16113090;19;131240;-41
2023/03/03 04:54:33;;;;;;;3.40;3.08;;;;;;;16.82;26.98;102345.53;16110221;19;129558;-41
2023/03/03 04:59:55;;;;;;;4.25;3.13;;;;;;;16.82;27.06;102345.53;16110710;19;133855;-42
2023/03/03 05:05:16;;;;;;;3.70;2.63;;;;;;;16.81;26.94;102354.88;16110578;19;129945;-43
2023/03/03 05:10:39;;;;;;;3.53;2.63;;;;;;;16.80;27.25;102357.84;16112259;19;131036;-44
2023/03/03 05:16:01;;;;;;;3.90;3.20;;;;;;;16.78;27.02;102355.25;16121700;19;129663;-41
2023/03/03 05:21:23;;;;;;;3.58;3.05;;;;;;;16.76;26.95;102354.59;16124471;19;131588;-47
2023/03/03 05:26:45;;;;;;;3.45;2.78;;;;;;;16.75;27.13;102362.06;16123248;19;131009;-41
2023/03/03 05:32:06;;;;;;;2.63;2.42;;;;;;;16.74;27.02;102371.41;16122952;19;131167;-42
2023/03/03 05:37:28;;;;;;;2.72;2.20;;;;;;;16.72;27.35;102376.25;16118446;19;130735;-45
2023/03/03 05:42:50;;;;;;;3.42;2.70;;;;;;;16.73;27.08;102372.44;16123801;19;129579;-40
2023/03/03 05:48:12;;;;;;;3.83;2.72;;;;;;;16.71;27.18;102374.53;16127814;19;130245;-42
2023/03/03 05:53:34;;;;;;;3.22;2.90;;;;;;;16.70;27.10;102375.59;16123206;19;134684;-42
2023/03/03 05:58:56;;;;;;;2.88;2.58;;;;;;;16.68;27.36;102377.69;16123062;19;130729;-41
2023/03/03 06:04:18;;;;;;;3.55;2.78;;;;;;;16.70;27.36;102385.81;16122553;19;131590;-46
2023/03/03 06:09:40;;;;;;;4.18;3.30;;;;;;;16.81;27.06;102393.56;16121229;19;130075;-45
2023/03/03 06:15:02;;;;;;;5.13;3.75;;;;;;;17.23;26.54;102394.56;16119870;19;130434;-45
2023/03/03 06:20:23;;;;;;;5.03;3.45;;;;;;;17.74;26.37;102403.66;16118378;19;129514;-42
2023/03/03 06:25:46;;;;;;;3.83;2.85;;;;;;;18.23;26.16;102398.97;16120384;19;129391;-42
2023/03/03 06:31:08;;;;;;;3.30;2.60;;;;;;;18.76;25.67;102405.75;16120745;19;131478;-44
2023/03/03 06:36:30;;;;;;;2.60;2.25;;;;;;;19.21;25.12;102419.00;16121275;19;129982;-44
2023/03/03 06:41:51;;;;;;;2.95;2.30;;;;;;;19.50;25.24;102419.63;16123340;19;129665;-43
2023/03/03 06:47:13;;;;;;;3.30;2.78;;;;;;;19.49;24.60;102417.94;16117218;19;130917;-42
2023/03/03 06:52:35;;;;;;;3.17;2.63;;;;;;;19.42;24.93;102425.44;16121591;19;129401;-42
2023/03/03 06:57:58;;;;;;;4.72;3.17;;;;;;;19.27;25.11;102433.94;16123553;19;130709;-45
2023/03/03 07:03:31;;;;;;;7.05;3.30;;;;;;;19.09;24.64;102443.75;16118642;19;130392;-45
2023/03/03 07:08:54;;;;;;;4.78;3.10;;;;;;;18.92;25.15;102448.88;16122877;19;130971;-43
2023/03/03 07:14:19;;;;;;;4.68;3.10;;;;;;;18.75;25.08;102460.34;16120640;19;129988;-41
2023/03/03 07:19:42;;;;;;;3.93;3.00;;;;;;;18.60;25.29;102462.44;16117216;19;129753;-41
2023/03/03 07:25:23;;;;;;;4.22;2.70;;;;;;;18.46;25.11;102479.00;16121070;19;132490;-41
2023/03/03 07:30:45;;;;;;;3.13;2.45;;;;;;;18.31;25.58;102481.06;16118809;19;130118;-42
2023/03/03 07:36:39;;;;;;;4.22;3.03;;;;;;;18.16;25.36;102472.88;16117671;19;129555;-42
2023/03/03 07:42:21;;;;;;;3.30;2.67;;;;;;;18.06;25.79;102477.94;16114441;19;131420;-42
2023/03/03 07:47:43;;;;;;;4.47;2.85;;;;;;;17.94;25.65;102480.44;16116942;19;129461;-45
2023/03/03 07:53:13;;;;;;;3.42;2.50;;;;;;;17.87;25.90;102490.59;16119761;19;129622;-42
2023/03/03 07:58:40;;;;;;;4.22;2.90;;;;;;;17.87;26.06;102494.25;16118846;19;129560;-41
2023/03/03 08:04:06;;;;;;;3.60;2.65;;;;;;;18.06;25.76;102489.88;16117130;19;129868;-43
2023/03/03 08:09:45;;;;;;;4.03;2.97;;;;;;;18.51;25.37;102502.47;16116759;19;129928;-43
2023/03/03 08:15:21;;;;;;;4.00;2.35;;;;;;;18.98;25.09;102497.91;16118499;19;129668;-41
2023/03/03 08:20:48;;;;;;;2.92;2.28;;;;;;;19.41;24.73;102501.44;16115406;19;129606;-44
2023/03/03 08:26:13;;;;;;;2.65;1.95;;;;;;;19.66;24.54;102510.81;16117220;19;129290;-41
2023/03/03 08:31:35;;;;;;;3.13;2.17;;;;;;;19.87;24.43;102517.19;16114023;19;130469;-45
2023/03/03 08:37:02;;;;;;;2.00;1.80;;;;;;;20.02;24.79;102516.13;16116006;19;129158;-40
2023/03/03 08:42:24;;;;;;;2.47;1.75;;;;;;;20.07;24.55;102521.88;16116161;19;129512;-41
2023/03/03 08:47:46;;;;;;;2.38;1.67;;;;;;;20.04;24.46;102527.88;16126853;19;131292;-45
2023/03/03 08:53:08;;;;;;;2.83;2.17;;;;;;;19.93;24.63;102538.56;16132141;19;129711;-41
2023/03/03 08:58:30;;;;;;;2.47;1.80;;;;;;;19.78;24.92;102541.53;16129320;19;130657;-42
2023/03/03 09:03:56;;;;;;;3.95;2.35;;;;;;;19.60;24.69;102539.41;16131665;19;130001;-42
2023/03/03 09:09:18;;;;;;;2.80;2.20;;;;;;;19.44;25.00;102531.53;16129123;19;129638;-41
2023/03/03 09:14:40;;;;;;;3.92;2.50;;;;;;;19.27;25.19;102547.72;16129408;19;129332;-45
2023/03/03 09:20:21;;;;;;;3.45;2.05;;;;;;;19.12;25.05;102547.88;16127254;19;129634;-41
2023/03/03 09:25:43;;;;;;;3.08;2.33;;;;;;;18.95;25.04;102552.97;16122772;19;129616;-43
2023/03/03 09:31:21;;;;;;;3.25;2.25;;;;;;;18.85;25.12;102556.13;16127144;19;129177;-43
2023/03/03 09:36:43;;;;;;;2.78;2.35;;;;;;;18.72;25.61;102555.00;16126529;19;130614;-42
2023/03/03 09:42:16;;;;;;;2.67;2.20;;;;;;;18.65;25.56;102558.81;16125366;19;129251;-42
2023/03/03 09:47:45;;;;;;;3.08;2.42;;;;;;;18.53;25.89;102559.41;16126822;19;129592;-44
2023/03/03 09:53:17;;;;;;;5.05;2.35;;;;;;;18.44;25.86;102564.28;16126390;19;129599;-41
2023/03/03 09:59:17;;;;;;;4.30;2.65;;;;;;;18.33;25.94;102570.38;16123564;19;131485;-45
2023/03/03 10:04:42;;;;;;;3.65;2.22;;;;;;;18.22;25.75;102571.78;16125127;19;129885;-42
2023/03/03 10:10:26;;;;;;;3.22;2.50;;;;;;;18.14;25.96;102574.72;16123605;19;129622;-41
2023/03/03 10:16:06;;;;;;;2.97;2.42;;;;;;;18.14;25.66;102581.13;16126631;19;129610;-41
2023/03/03 10:21:36;;;;;;;3.13;2.30;;;;;;;18.29;25.76;102582.91;16122068;19;130866;-49
2023/03/03 10:27:19;;;;;;;3.47;2.08;;;;;;;18.60;25.48;102578.84;16125163;19;130682;-52
2023/03/03 10:33:07;;;;;;;2.22;1.80;;;;;;;18.95;25.49;102586.25;16127009;19;129926;-46
2023/03/03 10:38:44;;;;;;;5.82;1.92;;;;;;;19.18;25.38;102580.34;16123991;19;130942;-47
2023/03/03 10:44:19;;;;;;;4.78;2.30;;;;;;;19.37;25.69;102574.00;16123197;19;129981;-44
2023/03/03 10:50:07;;;;;;;5.63;2.00;;;;;;;19.56;26.01;102582.56;16121298;19;129412;-48
2023/03/03 10:55:34;;;;;;;3.30;2.35;;;;;;;19.78;25.96;102585.13;16123821;19;131302;-43
2023/03/03 11:01:11;;;;;;;2.80;2.20;;;;;;;19.89;26.03;102591.94;16125253;19;130060;-43
2023/03/03 11:06:48;;;;;;;3.60;2.28;;;;;;;19.98;26.11;102583.19;16120410;19;130724;-42
2023/03/03 11:12:46;;;;;;;3.20;2.10;;;;;;;20.04;26.62;102586.22;16120221;19;129322;-42
2023/03/03 11:18:35;;;;;;;4.75;2.10;;;;;;;20.03;27.07;102579.81;16121229;19;130354;-43
2023/03/03 11:23:59;;;;;;;3.95;2.10;;;;;;;20.02;26.74;102580.03;16109845;19;131042;-44
2023/03/03 11:29:39;;;;;;;2.83;1.83;;;;;;;19.98;27.57;102580.41;16108324;19;129607;-43
2023/03/03 11:35:19;;;;;;;2.95;1.83;;;;;;;19.92;27.63;102570.19;16108099;19;131269;-45
2023/03/03 11:40:55;;;;;;;4.40;2.40;;;;;;;19.86;27.70;102564.63;16108056;19;129583;-43
2023/03/03 11:46:36;;;;;;;4.93;2.15;;;;;;;19.82;27.87;102567.84;16108527;19;129912;-42
2023/03/03 11:52:21;;;;;;;8.50;3.53;;;;;;;19.82;28.36;102564.19;16108180;19;130436;-46
2023/03/03 11:58:01;;;;;;;7.90;3.33;;;;;;;19.81;29.04;102566.13;16109737;19;129574;-44
2023/03/03 12:03:44;;;;;;;5.22;3.00;;;;;;;19.78;29.21;102558.22;16117873;19;129415;-43
2023/03/03 12:09:29;;;;;;;6.53;2.70;;;;;;;19.74;29.28;102562.50;16115475;19;130524;-42
2023/03/03 12:15:14;;;;;;;6.05;3.28;;;;;;;19.65;29.42;102552.66;16119126;19;129213;-45
2023/03/03 12:20:58;;;;;;;7.05;3.35;;;;;;;19.54;30.14;102545.84;16114413;19;129117;-43
2023/03/03 12:26:32;;;;;;;8.90;2.78;;;;;;;19.44;30.16;102546.25;16116270;19;130498;-42
2023/03/03 12:32:01;;;;;;;5.35;2.45;;;;;;;19.37;29.92;102543.47;16114155;19;131884;-41
2023/03/03 12:37:36;;;;;;;5.75;2.30;;;;;;;19.34;30.06;102543.06;16117323;19;129670;-42
2023/03/03 12:43:21;;;;;;;2.97;2.50;;;;;;;19.25;30.43;102534.06;16114384;19;130742;-42
2023/03/03 12:48:44;;;;;;;4.22;2.33;;;;;;;19.19;30.38;102534.91;16113852;19;129398;-42
2023/03/03 12:54:09;;;;;;;5.28;2.70;;;;;;;19.11;30.25;102529.53;16116918;19;129716;-41
2023/03/03 12:59:33;;;;;;;2.73;2.10;;;;;;;19.03;30.33;102527.78;16112568;19;129407;-49
2023/03/03 13:05:07;;;;;;;4.65;1.90;;;;;;;18.99;30.33;102521.81;16111338;19;129769;-43
2023/03/03 13:11:06;;;;;;;2.22;1.90;;;;;;;18.93;30.54;102514.34;16112649;19;131224;-42
2023/03/03 13:16:37;;;;;;;2.45;1.80;;;;;;;18.85;30.85;102503.44;16102208;19;129726;-42
2023/03/03 13:22:12;;;;;;;5.50;2.55;;;;;;;18.93;31.23;102500.50;16102207;19;129555;-41
2023/03/03 13:27:41;;;;;;;5.63;2.28;;;;;;;19.06;31.23;102497.75;16101013;19;133358;-45
2023/03/03 13:33:24;;;;;;;3.67;2.25;;;;;;;19.26;30.67;102491.38;16107732;19;130145;-43
2023/03/03 13:38:50;;;;;;;4.18;1.98;;;;;;;19.41;30.67;102495.88;16117290;19;129625;-42
2023/03/03 13:44:24;;;;;;;3.47;2.22;;;;;;;19.53;30.77;102494.16;16116490;19;129797;-43
2023/03/03 13:50:28;;;;;;;3.58;1.98;;;;;;;19.61;30.28;102499.50;16119961;19;130031;-42
2023/03/03 13:55:58;;;;;;;2.97;1.90;;;;;;;19.59;30.44;102498.84;16119058;19;130036;-54
2023/03/03 14:01:39;;;;;;;3.83;2.08;;;;;;;19.56;30.20;102488.19;16116281;19;130947;-51
2023/03/03 14:07:40;;;;;;;3.30;1.88;;;;;;;19.50;30.29;102477.94;16114885;19;129914;-50
2023/03/03 14:13:07;;;;;;;2.53;1.80;;;;;;;19.39;29.91;102473.88;16114177;19;131325;-56
2023/03/03 14:19:05;;;;;;;3.63;1.58;;;;;;;19.33;30.60;102475.56;16115477;19;129369;-54
2023/03/03 14:24:28;;;;;;;4.05;2.10;;;;;;;19.24;30.57;102468.53;16114527;19;130567;-52
2023/03/03 14:29:49;;;;;;;2.63;1.60;;;;;;;19.16;30.80;102468.72;16119017;19;133250;-54
2023/03/03 14:35:19;;;;;;;3.08;2.03;;;;;;;19.08;30.49;102470.63;16125225;19;129663;-53
2023/03/03 14:40:44;;;;;;;2.92;1.63;;;;;;;19.04;30.76;102474.03;16122082;19;131565;-50
2023/03/03 14:46:35;;;;;;;2.80;1.43;;;;;;;18.97;30.83;102462.94;16121807;19;129457;-47
2023/03/03 14:52:22;;;;;;;2.08;1.30;;;;;;;18.89;30.59;102457.59;16122041;19;129544;-47
2023/03/03 14:57:47;;;;;;;1.92;1.40;;;;;;;18.80;31.24;102451.38;16123471;19;129705;-46
2023/03/03 15:03:27;;;;;;;2.10;1.40;;;;;;;18.79;31.37;102446.06;16125840;19;129959;-45
2023/03/03 15:08:48;;;;;;;1.40;1.20;;;;;;;18.74;30.89;102453.09;16121220;19;129746;-48
2023/03/03 15:14:17;;;;;;;2.47;1.17;;;;;;;18.77;31.13;102451.81;16124407;19;129809;-48
2023/03/03 15:20:16;;;;;;;1.27;1.00;;;;;;;18.77;31.44;102441.59;16121564;19;129530;-43
2023/03/03 15:25:46;;;;;;;2.00;1.10;;;;;;;18.80;30.98;102445.00;16118454;19;129496;-45
2023/03/03 15:31:30;;;;;;;1.98;1.05;;;;;;;18.83;31.19;102441.81;16119849;19;129640;-48
2023/03/03 15:37:31;;;;;;;1.15;0.85;;;;;;;18.84;31.28;102443.50;16119520;19;129076;-48
2023/03/03 15:43:12;;;;;;;1.27;0.82;;;;;;;18.84;31.06;102432.41;16122598;19;131146;-43
2023/03/03 15:48:33;;;;;;;1.17;0.90;;;;;;;18.81;31.33;102430.06;16120714;19;130962;-43
2023/03/03 15:53:58;;;;;;;1.30;0.98;;;;;;;18.80;30.87;102428.38;16119719;19;129540;-44
2023/03/03 15:59:49;;;;;;;1.30;1.00;;;;;;;18.76;30.88;102428.78;16120314;19;129418;-45
2023/03/03 16:05:15;;;;;;;1.08;0.88;;;;;;;18.69;30.56;102424.28;16117692;19;130431;-42
2023/03/03 16:10:45;;;;;;;1.50;1.17;;;;;;;18.65;30.48;102429.41;16117108;19;129632;-47
2023/03/03 16:16:57;;;;;;;1.20;1.00;;;;;;;18.58;30.63;102443.25;16118252;19;129638;-44
2023/03/03 16:22:48;;;;;;;2.50;1.30;;;;;;;18.56;30.12;102425.97;16107098;19;129857;-43
2023/03/03 16:28:21;;;;;;;4.28;1.40;;;;;;;18.55;30.12;102437.28;16105459;19;129715;-43
2023/03/03 16:33:55;;;;;;;1.90;1.08;;;;;;;18.50;30.05;102434.25;16107417;19;129727;-45
2023/03/03 16:39:41;;;;;;;2.17;1.10;;;;;;;18.49;30.01;102444.50;16105034;19;130227;-45
2023/03/03 16:45:19;;;;;;;2.03;0.90;;;;;;;18.46;30.13;102442.13;16104096;19;132338;-46
2023/03/03 16:50:54;;;;;;;3.53;1.00;;;;;;;18.44;30.06;102450.66;16104346;19;131431;-45
2023/03/03 16:56:23;;;;;;;0.68;0.68;;;;;;;18.40;29.94;102445.75;16113970;19;131247;-45
2023/03/03 17:01:56;;;;;;;2.50;1.10;;;;;;;18.38;30.47;102442.31;16112575;19;129985;-45
2023/03/03 17:07:38;;;;;;;2.70;0.98;;;;;;;18.32;30.22;102444.00;16118467;19;130102;-47
2023/03/03 17:13:14;;;;;;;28.55;8.13;;;;;;;18.27;29.85;102458.47;16127439;19;130091;-47
2023/03/03 17:18:48;;;;;;;30.73;10.30;;;;;;;18.24;29.78;102458.00;16126242;19;130827;-48
2023/03/03 17:24:15;;;;;;;31.02;9.48;;;;;;;18.20;30.23;102465.03;16127836;19;134567;-47
2023/03/03 17:29:54;;;;;;;42.08;10.20;;;;;;;18.19;29.90;102466.94;16126217;19;129388;-52
2023/03/03 17:35:38;;;;;;;30.67;10.52;;;;;;;18.12;30.30;102468.81;16127021;19;132159;-51
2023/03/03 17:41:12;;;;;;;34.75;10.30;;;;;;;18.13;29.85;102476.91;16123389;19;130720;-50
2023/03/03 17:46:42;;;;;;;23.10;7.03;;;;;;;18.12;28.52;102477.97;16128313;19;132512;-52
2023/03/03 17:52:22;;;;;;;17.83;5.18;;;;;;;18.43;27.87;102490.53;16121782;19;129330;-47
2023/03/03 17:58:26;;;;;;;12.02;4.80;;;;;;;18.89;27.78;102491.72;16126540;19;130046;-47
2023/03/03 18:04:25;;;;;;;18.88;5.85;;;;;;;19.35;27.90;102498.44;16123743;19;129339;-49
2023/03/03 18:10:20;;;;;;;18.98;7.47;;;;;;;19.62;28.14;102494.81;16124319;19;129256;-51
2023/03/03 18:16:03;;;;;;;20.67;6.88;;;;;;;19.80;27.93;102505.25;16124483;19;132139;-50
2023/03/03 18:21:47;;;;;;;22.33;7.50;;;;;;;19.81;28.13;102507.81;16110274;19;130359;-43
2023/03/03 18:27:18;;;;;;;13.90;5.70;;;;;;;19.76;27.97;102510.34;16117146;19;131260;-44
2023/03/03 18:32:44;;;;;;;15.50;5.57;;;;;;;19.65;27.90;102514.66;16123659;19;129857;-43
2023/03/03 18:38:19;;;;;;;10.65;5.07;;;;;;;19.56;27.92;102521.50;16121124;19;129584;-45
2023/03/03 18:43:44;;;;;;;18.37;5.93;;;;;;;19.51;28.24;102515.72;16118608;19;129485;-45
2023/03/03 18:49:08;;;;;;;19.87;6.43;;;;;;;19.49;28.25;102520.63;16118140;19;130348;-46
2023/03/03 18:54:32;;;;;;;17.20;5.40;;;;;;;19.52;28.46;102520.22;16118892;19;131845;-45
2023/03/03 18:59:59;;;;;;;12.82;4.70;;;;;;;19.79;27.81;102526.59;16122362;19;129993;-44
2023/03/03 19:05:23;;;;;;;10.45;4.18;;;;;;;20.21;27.24;102529.09;16120516;19;129620;-47
2023/03/03 19:10:55;;;;;;;18.35;4.65;;;;;;;20.54;27.37;102525.38;16121107;19;129550;-46
2023/03/03 19:16:23;;;;;;;15.63;4.38;;;;;;;20.75;26.89;102524.22;16120036;19;132092;-44
2023/03/03 19:21:51;;;;;;;10.23;3.92;;;;;;;20.85;27.07;102526.53;16119916;19;129459;-52
2023/03/03 19:27:26;;;;;;;10.05;4.00;;;;;;;20.88;26.70;102528.88;16120028;19;129801;-51
2023/03/03 19:33:09;;;;;;;20.38;3.92;;;;;;;20.78;27.09;102522.06;16118463;19;130934;-47
2023/03/03 19:38:41;;;;;;;20.10;4.78;;;;;;;20.60;27.55;102527.25;16117948;19;129283;-52
2023/03/03 19:44:03;;;;;;;21.30;4.53;;;;;;;20.44;27.64;102527.75;16120426;19;131679;-43
2023/03/03 19:49:59;;;;;;;19.55;3.58;;;;;;;20.31;27.59;102538.94;16120327;19;129509;-44
2023/03/03 19:55:36;;;;;;;15.35;3.40;;;;;;;20.12;27.69;102545.16;16120074;19;129694;-42
2023/03/03 20:01:32;;;;;;;12.20;3.35;;;;;;;19.96;27.83;102554.78;16119194;19;129603;-44
2023/03/03 20:07:12;;;;;;;12.27;2.60;;;;;;;19.79;28.17;102550.75;16120547;19;129834;-42
2023/03/03 20:12:59;;;;;;;6.25;2.15;;;;;;;19.66;27.95;102558.03;16116370;19;129694;-43
2023/03/03 20:18:42;;;;;;;5.03;1.98;;;;;;;19.80;28.08;102567.19;16116755;19;129373;-44
2023/03/03 20:24:20;;;;;;;12.63;1.95;;;;;;;20.26;27.16;102575.69;16118387;19;131253;-43
2023/03/03 20:29:42;;;;;;;3.65;1.50;;;;;;;20.67;26.94;102573.66;16116886;19;131118;-48
2023/03/03 20:35:19;;;;;;;14.23;2.13;;;;;;;20.97;26.19;102573.97;16115397;19;129512;-46
2023/03/03 20:40:57;;;;;;;5.68;1.77;;;;;;;21.06;25.95;102580.13;16117024;19;131326;-44
2023/03/03 20:46:55;;;;;;;6.15;1.50;;;;;;;21.00;26.38;102581.03;16147652;19;129630;-42
2023/03/03 20:52:52;;;;;;;5.20;1.55;;;;;;;20.88;25.98;102584.50;16144583;19;131601;-45
2023/03/03 20:58:47;;;;;;;5.85;1.60;;;;;;;20.71;26.13;102588.81;16144651;19;133243;-42
2023/03/03 21:04:19;;;;;;;4.30;1.40;;;;;;;20.53;26.22;102589.53;16144134;19;129848;-44
2023/03/03 21:09:41;;;;;;;5.03;1.08;;;;;;;20.40;26.53;102596.00;16143895;19;130909;-44
2023/03/03 21:15:10;;;;;;;3.58;1.58;;;;;;;20.33;26.70;102595.13;16144284;19;131441;-46
2023/03/03 21:20:33;;;;;;;5.15;1.15;;;;;;;20.39;26.50;102588.72;16142012;19;130743;-43
2023/03/03 21:25:56;;;;;;;2.80;1.10;;;;;;;20.50;26.44;102592.72;16144738;19;131271;-45
2023/03/03 21:31:18;;;;;;;2.88;1.05;;;;;;;20.63;26.61;102600.19;16143075;19;130494;-44
2023/03/03 21:36:40;;;;;;;4.85;1.10;;;;;;;20.71;26.48;102594.38;16143335;19;129528;-46
2023/03/03 21:42:03;;;;;;;8.40;1.02;;;;;;;20.73;26.69;102603.34;16142399;19;131411;-44
2023/03/03 21:47:27;;;;;;;5.78;0.90;;;;;;;20.67;26.46;102604.25;16140337;19;130842;-45
2023/03/03 21:52:49;;;;;;;4.95;0.70;;;;;;;20.55;26.38;102602.16;16136342;19;128992;-43
2023/03/03 21:58:10;;;;;;;10.90;1.75;;;;;;;20.43;26.38;102603.91;16127403;19;130717;-48
2023/03/03 22:03:33;;;;;;;11.60;1.77;;;;;;;20.29;26.69;102594.72;16127135;19;129718;-44
2023/03/03 22:08:55;;;;;;;6.10;1.20;;;;;;;20.17;26.63;102597.31;16125380;19;130379;-43
2023/03/03 22:14:17;;;;;;;9.40;1.30;;;;;;;20.03;26.66;102596.47;16123579;19;130810;-43
2023/03/03 22:19:39;;;;;;;5.40;1.05;;;;;;;19.92;26.61;102597.97;16124691;19;130027;-44
2023/03/03 22:25:01;;;;;;;7.47;1.38;;;;;;;19.82;27.13;102594.72;16123769;19;131013;-43
2023/03/03 22:30:22;;;;;;;8.18;1.17;;;;;;;19.71;27.25;102589.81;16122045;19;130224;-45
2023/03/03 22:35:44;;;;;;;5.50;1.05;;;;;;;19.60;27.10;102594.94;16118814;19;131284;-46
2023/03/03 22:41:07;;;;;;;8.93;1.48;;;;;;;19.51;27.30;102596.22;16118145;19;129808;-44
2023/03/03 22:46:28;;;;;;;2.90;1.00;;;;;;;19.43;27.15;102593.66;16120104;19;130355;-43
2023/03/03 22:51:50;;;;;;;5.95;1.20;;;;;;;19.34;27.39;102598.56;16118554;19;131134;-44
2023/03/03 22:57:12;;;;;;;3.55;1.10;;;;;;;19.27;27.25;102609.63;16123204;19;130762;-42
2023/03/03 23:02:34;;;;;;;3.85;1.20;;;;;;;19.20;27.65;102594.88;16121495;19;129499;-43
2023/03/03 23:07:56;;;;;;;4.68;1.38;;;;;;;19.14;27.47;102595.69;16119316;19;129764;-45
2023/03/03 23:13:18;;;;;;;4.13;1.10;;;;;;;19.07;27.51;102599.31;16120391;19;131123;-42
2023/03/03 23:18:39;;;;;;;4.63;1.10;;;;;;;19.01;27.55;102605.69;16118767;19;130860;-42
2023/03/03 23:24:02;;;;;;;4.68;1.60;;;;;;;18.97;27.35;102607.16;16121013;19;129966;-42
2023/03/03 23:29:24;;;;;;;4.18;1.40;;;;;;;18.90;27.42;102597.97;16116423;19;130260;-43
2023/03/03 23:34:46;;;;;;;5.78;1.52;;;;;;;18.86;27.71;102599.44;16117059;19;130848;-42
2023/03/03 23:40:08;;;;;;;5.00;1.15;;;;;;;18.81;27.82;102602.81;16120491;19;130064;-43
2023/03/03 23:45:30;;;;;;;5.47;1.27;;;;;;;18.76;27.80;102595.13;16087120;19;129878;-46
2023/03/03 23:50:52;;;;;;;3.45;1.20;;;;;;;18.71;27.61;102589.34;16104371;19;131213;-44
2023/03/03 23:56:14;;;;;;;7.85;1.33;;;;;;;18.67;27.87;102595.50;16112632;19;131358;-43
